sensor_id;sensor_type;location;lat;lon;timestamp;P1;durP1;ratioP1;P2;durP2;ratioP2
78995;SDS011;68401;47.192;-1.552;2023-07-16T00:01:34;19.30;;;7.85;;
78995;SDS011;68401;47.192;-1.552;2023-07-16T00:03:59;15.27;;;7.70;;
78995;SDS011;68401;47.192;-1.552;2023-07-16T00:06:24;17.67;;;9.27;;
78995;SDS011;68401;47.192;-1.552;2023-07-16T00:08:50;24.55;;;9.27;;
78995;SDS011;68401;47.192;-1.552;2023-07-16T00:11:15;14.85;;;8.55;;
78995;SDS011;68401;47.192;-1.552;2023-07-16T00:13:41;13.85;;;7.43;;
78995;SDS011;68401;47.192;-1.552;2023-07-16T00:16:11;15.57;;;8.35;;
78995;SDS011;68401;47.192;-1.552;2023-07-16T00:18:37;14.35;;;7.53;;
78995;SDS011;68401;47.192;-1.552;2023-07-16T00:21:02;15.07;;;8.00;;
78995;SDS011;68401;47.192;-1.552;2023-07-16T00:23:27;15.32;;;8.80;;
78995;SDS011;68401;47.192;-1.552;2023-07-16T00:25:53;14.20;;;8.82;;
78995;SDS011;68401;47.192;-1.552;2023-07-16T00:28:18;18.35;;;7.25;;
78995;SDS011;68401;47.192;-1.552;2023-07-16T00:30:44;15.40;;;7.50;;
78995;SDS011;68401;47.192;-1.552;2023-07-16T00:33:09;17.80;;;6.97;;
78995;SDS011;68401;47.192;-1.552;2023-07-16T00:35:34;14.20;;;7.07;;
78995;SDS011;68401;47.192;-1.552;2023-07-16T00:38:00;16.73;;;6.57;;
78995;SDS011;68401;47.192;-1.552;2023-07-16T00:40:25;15.30;;;6.32;;
78995;SDS011;68401;47.192;-1.552;2023-07-16T00:42:50;14.73;;;5.82;;
78995;SDS011;68401;47.192;-1.552;2023-07-16T00:45:16;13.85;;;6.60;;
78995;SDS011;68401;47.192;-1.552;2023-07-16T00:47:42;11.93;;;5.80;;
78995;SDS011;68401;47.192;-1.552;2023-07-16T00:50:09;13.18;;;6.00;;
78995;SDS011;68401;47.192;-1.552;2023-07-16T00:52:36;16.60;;;5.78;;
78995;SDS011;68401;47.192;-1.552;2023-07-16T00:55:02;10.60;;;5.05;;
78995;SDS011;68401;47.192;-1.552;2023-07-16T00:57:27;10.85;;;4.95;;
78995;SDS011;68401;47.192;-1.552;2023-07-16T00:59:53;12.65;;;5.75;;
78995;SDS011;68401;47.192;-1.552;2023-07-16T01:02:18;11.82;;;4.97;;
78995;SDS011;68401;47.192;-1.552;2023-07-16T01:04:44;8.52;;;4.47;;
78995;SDS011;68401;47.192;-1.552;2023-07-16T01:07:10;14.73;;;5.60;;
78995;SDS011;68401;47.192;-1.552;2023-07-16T01:09:36;15.13;;;5.25;;
78995;SDS011;68401;47.192;-1.552;2023-07-16T01:12:05;14.20;;;4.95;;
78995;SDS011;68401;47.192;-1.552;2023-07-16T01:14:31;16.10;;;4.75;;
78995;SDS011;68401;47.192;-1.552;2023-07-16T01:16:57;9.10;;;4.43;;
78995;SDS011;68401;47.192;-1.552;2023-07-16T01:19:24;12.80;;;4.97;;
78995;SDS011;68401;47.192;-1.552;2023-07-16T01:29:49;9.43;;;4.15;;
78995;SDS011;68401;47.192;-1.552;2023-07-16T01:32:16;8.48;;;4.15;;
78995;SDS011;68401;47.192;-1.552;2023-07-16T01:34:42;17.90;;;4.18;;
78995;SDS011;68401;47.192;-1.552;2023-07-16T01:37:07;13.60;;;4.25;;
78995;SDS011;68401;47.192;-1.552;2023-07-16T01:39:33;15.57;;;4.13;;
78995;SDS011;68401;47.192;-1.552;2023-07-16T01:41:59;14.55;;;3.72;;
78995;SDS011;68401;47.192;-1.552;2023-07-16T01:44:24;15.68;;;3.80;;
78995;SDS011;68401;47.192;-1.552;2023-07-16T01:47:10;16.10;;;3.55;;
78995;SDS011;68401;47.192;-1.552;2023-07-16T01:49:38;9.65;;;3.00;;
78995;SDS011;68401;47.192;-1.552;2023-07-16T01:52:04;8.95;;;3.47;;
78995;SDS011;68401;47.192;-1.552;2023-07-16T01:54:31;14.50;;;3.50;;
78995;SDS011;68401;47.192;-1.552;2023-07-16T01:56:56;12.85;;;4.57;;
78995;SDS011;68401;47.192;-1.552;2023-07-16T01:59:21;14.93;;;5.47;;
78995;SDS011;68401;47.192;-1.552;2023-07-16T02:01:47;13.65;;;6.70;;
78995;SDS011;68401;47.192;-1.552;2023-07-16T02:04:12;17.77;;;5.20;;
78995;SDS011;68401;47.192;-1.552;2023-07-16T02:06:37;11.85;;;4.93;;
78995;SDS011;68401;47.192;-1.552;2023-07-16T02:09:03;16.20;;;5.82;;
78995;SDS011;68401;47.192;-1.552;2023-07-16T02:11:28;9.85;;;5.60;;
78995;SDS011;68401;47.192;-1.552;2023-07-16T02:13:54;11.77;;;5.88;;
78995;SDS011;68401;47.192;-1.552;2023-07-16T02:16:19;12.85;;;5.50;;
78995;SDS011;68401;47.192;-1.552;2023-07-16T02:18:45;10.90;;;5.78;;
78995;SDS011;68401;47.192;-1.552;2023-07-16T02:21:10;14.32;;;6.75;;
78995;SDS011;68401;47.192;-1.552;2023-07-16T02:23:35;12.43;;;5.80;;
78995;SDS011;68401;47.192;-1.552;2023-07-16T02:26:01;15.32;;;6.30;;
78995;SDS011;68401;47.192;-1.552;2023-07-16T02:28:27;17.65;;;6.57;;
78995;SDS011;68401;47.192;-1.552;2023-07-16T02:30:52;12.27;;;6.22;;
78995;SDS011;68401;47.192;-1.552;2023-07-16T02:33:17;11.27;;;5.13;;
78995;SDS011;68401;47.192;-1.552;2023-07-16T02:35:46;16.77;;;6.15;;
78995;SDS011;68401;47.192;-1.552;2023-07-16T02:38:14;18.33;;;5.93;;
78995;SDS011;68401;47.192;-1.552;2023-07-16T02:40:46;11.02;;;4.82;;
78995;SDS011;68401;47.192;-1.552;2023-07-16T02:43:12;11.75;;;4.47;;
78995;SDS011;68401;47.192;-1.552;2023-07-16T02:45:38;10.50;;;4.88;;
78995;SDS011;68401;47.192;-1.552;2023-07-16T02:48:04;19.73;;;7.57;;
78995;SDS011;68401;47.192;-1.552;2023-07-16T02:50:37;11.57;;;4.82;;
78995;SDS011;68401;47.192;-1.552;2023-07-16T02:53:06;14.13;;;5.20;;
78995;SDS011;68401;47.192;-1.552;2023-07-16T02:55:32;12.77;;;4.60;;
78995;SDS011;68401;47.192;-1.552;2023-07-16T02:57:57;9.73;;;4.93;;
78995;SDS011;68401;47.192;-1.552;2023-07-16T03:00:23;11.25;;;4.82;;
78995;SDS011;68401;47.192;-1.552;2023-07-16T03:02:48;17.27;;;5.15;;
78995;SDS011;68401;47.192;-1.552;2023-07-16T03:07:42;14.37;;;5.30;;
78995;SDS011;68401;47.192;-1.552;2023-07-16T03:10:07;13.50;;;5.57;;
78995;SDS011;68401;47.192;-1.552;2023-07-16T03:12:33;15.15;;;5.35;;
78995;SDS011;68401;47.192;-1.552;2023-07-16T03:14:59;12.15;;;4.68;;
78995;SDS011;68401;47.192;-1.552;2023-07-16T03:17:24;15.93;;;5.50;;
78995;SDS011;68401;47.192;-1.552;2023-07-16T03:19:49;17.15;;;5.13;;
78995;SDS011;68401;47.192;-1.552;2023-07-16T03:22:15;14.02;;;5.03;;
78995;SDS011;68401;47.192;-1.552;2023-07-16T03:24:40;9.18;;;4.32;;
78995;SDS011;68401;47.192;-1.552;2023-07-16T03:27:06;11.60;;;4.30;;
78995;SDS011;68401;47.192;-1.552;2023-07-16T03:29:35;15.73;;;5.13;;
78995;SDS011;68401;47.192;-1.552;2023-07-16T03:34:25;11.70;;;4.13;;
78995;SDS011;68401;47.192;-1.552;2023-07-16T03:36:51;13.48;;;4.38;;
78995;SDS011;68401;47.192;-1.552;2023-07-16T03:39:17;14.98;;;3.70;;
78995;SDS011;68401;47.192;-1.552;2023-07-16T03:41:42;13.13;;;4.70;;
78995;SDS011;68401;47.192;-1.552;2023-07-16T03:44:07;13.77;;;4.00;;
78995;SDS011;68401;47.192;-1.552;2023-07-16T03:46:33;12.70;;;5.03;;
78995;SDS011;68401;47.192;-1.552;2023-07-16T03:48:58;12.05;;;3.47;;
78995;SDS011;68401;47.192;-1.552;2023-07-16T03:51:24;12.77;;;4.38;;
78995;SDS011;68401;47.192;-1.552;2023-07-16T03:53:49;14.30;;;5.18;;
78995;SDS011;68401;47.192;-1.552;2023-07-16T03:56:15;14.80;;;4.75;;
78995;SDS011;68401;47.192;-1.552;2023-07-16T03:58:40;13.68;;;4.40;;
78995;SDS011;68401;47.192;-1.552;2023-07-16T04:01:05;11.02;;;4.15;;
78995;SDS011;68401;47.192;-1.552;2023-07-16T04:03:31;12.05;;;4.28;;
78995;SDS011;68401;47.192;-1.552;2023-07-16T04:06:06;19.45;;;5.55;;
78995;SDS011;68401;47.192;-1.552;2023-07-16T04:08:34;10.43;;;4.22;;
78995;SDS011;68401;47.192;-1.552;2023-07-16T04:11:00;10.70;;;3.60;;
78995;SDS011;68401;47.192;-1.552;2023-07-16T04:13:26;12.55;;;3.72;;
78995;SDS011;68401;47.192;-1.552;2023-07-16T04:15:52;11.48;;;4.28;;
78995;SDS011;68401;47.192;-1.552;2023-07-16T04:18:19;10.77;;;3.97;;
78995;SDS011;68401;47.192;-1.552;2023-07-16T04:20:45;12.38;;;4.55;;
78995;SDS011;68401;47.192;-1.552;2023-07-16T04:23:11;14.07;;;5.55;;
78995;SDS011;68401;47.192;-1.552;2023-07-16T04:25:36;16.60;;;4.88;;
78995;SDS011;68401;47.192;-1.552;2023-07-16T04:28:02;16.80;;;3.95;;
78995;SDS011;68401;47.192;-1.552;2023-07-16T04:30:29;14.27;;;4.53;;
78995;SDS011;68401;47.192;-1.552;2023-07-16T04:32:54;20.48;;;4.80;;
78995;SDS011;68401;47.192;-1.552;2023-07-16T04:35:19;13.20;;;4.50;;
78995;SDS011;68401;47.192;-1.552;2023-07-16T04:37:45;14.00;;;4.65;;
78995;SDS011;68401;47.192;-1.552;2023-07-16T04:40:10;15.82;;;4.82;;
78995;SDS011;68401;47.192;-1.552;2023-07-16T04:42:36;22.73;;;6.13;;
78995;SDS011;68401;47.192;-1.552;2023-07-16T04:45:01;13.70;;;4.90;;
78995;SDS011;68401;47.192;-1.552;2023-07-16T04:47:27;17.02;;;5.55;;
78995;SDS011;68401;47.192;-1.552;2023-07-16T04:49:53;11.90;;;3.85;;
78995;SDS011;68401;47.192;-1.552;2023-07-16T04:52:18;15.77;;;4.57;;
78995;SDS011;68401;47.192;-1.552;2023-07-16T04:54:44;11.15;;;4.03;;
78995;SDS011;68401;47.192;-1.552;2023-07-16T04:57:09;17.73;;;5.05;;
78995;SDS011;68401;47.192;-1.552;2023-07-16T04:59:35;14.55;;;5.00;;
78995;SDS011;68401;47.192;-1.552;2023-07-16T05:02:01;11.90;;;4.50;;
78995;SDS011;68401;47.192;-1.552;2023-07-16T05:04:30;18.83;;;5.10;;
78995;SDS011;68401;47.192;-1.552;2023-07-16T05:06:55;9.23;;;4.32;;
78995;SDS011;68401;47.192;-1.552;2023-07-16T05:09:20;14.38;;;4.38;;
78995;SDS011;68401;47.192;-1.552;2023-07-16T05:11:46;17.85;;;4.93;;
78995;SDS011;68401;47.192;-1.552;2023-07-16T05:14:11;12.85;;;5.18;;
78995;SDS011;68401;47.192;-1.552;2023-07-16T05:16:37;15.32;;;5.63;;
78995;SDS011;68401;47.192;-1.552;2023-07-16T05:19:02;15.57;;;4.97;;
78995;SDS011;68401;47.192;-1.552;2023-07-16T05:21:28;14.35;;;5.20;;
78995;SDS011;68401;47.192;-1.552;2023-07-16T05:23:53;10.85;;;4.22;;
78995;SDS011;68401;47.192;-1.552;2023-07-16T05:26:18;10.40;;;4.60;;
78995;SDS011;68401;47.192;-1.552;2023-07-16T05:28:44;11.82;;;4.82;;
78995;SDS011;68401;47.192;-1.552;2023-07-16T05:31:09;12.18;;;5.32;;
78995;SDS011;68401;47.192;-1.552;2023-07-16T05:33:34;13.05;;;5.45;;
78995;SDS011;68401;47.192;-1.552;2023-07-16T05:36:00;12.77;;;4.93;;
78995;SDS011;68401;47.192;-1.552;2023-07-16T05:38:25;16.98;;;5.97;;
78995;SDS011;68401;47.192;-1.552;2023-07-16T05:40:51;13.27;;;4.75;;
78995;SDS011;68401;47.192;-1.552;2023-07-16T05:43:16;17.02;;;5.30;;
78995;SDS011;68401;47.192;-1.552;2023-07-16T05:45:41;12.57;;;6.20;;
78995;SDS011;68401;47.192;-1.552;2023-07-16T05:48:07;14.75;;;5.97;;
78995;SDS011;68401;47.192;-1.552;2023-07-16T05:50:32;13.48;;;5.55;;
78995;SDS011;68401;47.192;-1.552;2023-07-16T05:52:58;15.65;;;5.47;;
78995;SDS011;68401;47.192;-1.552;2023-07-16T05:55:23;13.70;;;5.22;;
78995;SDS011;68401;47.192;-1.552;2023-07-16T05:57:48;19.45;;;5.55;;
78995;SDS011;68401;47.192;-1.552;2023-07-16T06:00:14;12.25;;;5.43;;
78995;SDS011;68401;47.192;-1.552;2023-07-16T06:02:39;12.23;;;6.07;;
78995;SDS011;68401;47.192;-1.552;2023-07-16T06:05:05;14.80;;;5.93;;
78995;SDS011;68401;47.192;-1.552;2023-07-16T06:07:31;13.25;;;5.40;;
78995;SDS011;68401;47.192;-1.552;2023-07-16T06:09:57;12.90;;;5.18;;
78995;SDS011;68401;47.192;-1.552;2023-07-16T06:12:22;14.93;;;5.60;;
78995;SDS011;68401;47.192;-1.552;2023-07-16T06:14:48;12.88;;;5.30;;
78995;SDS011;68401;47.192;-1.552;2023-07-16T06:17:13;15.65;;;5.18;;
78995;SDS011;68401;47.192;-1.552;2023-07-16T06:19:39;11.02;;;5.35;;
78995;SDS011;68401;47.192;-1.552;2023-07-16T06:22:04;16.00;;;5.88;;
78995;SDS011;68401;47.192;-1.552;2023-07-16T06:24:29;13.63;;;6.57;;
78995;SDS011;68401;47.192;-1.552;2023-07-16T06:26:55;15.85;;;5.85;;
78995;SDS011;68401;47.192;-1.552;2023-07-16T06:29:20;16.63;;;5.40;;
78995;SDS011;68401;47.192;-1.552;2023-07-16T06:31:55;12.05;;;5.65;;
78995;SDS011;68401;47.192;-1.552;2023-07-16T06:34:22;15.85;;;5.68;;
78995;SDS011;68401;47.192;-1.552;2023-07-16T06:36:47;15.68;;;6.45;;
78995;SDS011;68401;47.192;-1.552;2023-07-16T06:39:13;13.27;;;5.80;;
78995;SDS011;68401;47.192;-1.552;2023-07-16T06:41:38;12.80;;;6.40;;
78995;SDS011;68401;47.192;-1.552;2023-07-16T06:44:03;15.73;;;5.80;;
78995;SDS011;68401;47.192;-1.552;2023-07-16T06:46:29;14.48;;;6.50;;
78995;SDS011;68401;47.192;-1.552;2023-07-16T06:48:54;11.77;;;5.45;;
78995;SDS011;68401;47.192;-1.552;2023-07-16T06:51:19;16.30;;;7.03;;
78995;SDS011;68401;47.192;-1.552;2023-07-16T06:53:45;13.27;;;6.32;;
78995;SDS011;68401;47.192;-1.552;2023-07-16T06:56:10;20.23;;;6.32;;
78995;SDS011;68401;47.192;-1.552;2023-07-16T06:58:36;11.68;;;5.30;;
78995;SDS011;68401;47.192;-1.552;2023-07-16T07:01:01;9.68;;;4.75;;
78995;SDS011;68401;47.192;-1.552;2023-07-16T07:03:26;10.75;;;5.15;;
78995;SDS011;68401;47.192;-1.552;2023-07-16T07:05:52;11.00;;;5.72;;
78995;SDS011;68401;47.192;-1.552;2023-07-16T07:08:17;12.73;;;5.82;;
78995;SDS011;68401;47.192;-1.552;2023-07-16T07:10:43;12.30;;;5.80;;
78995;SDS011;68401;47.192;-1.552;2023-07-16T07:13:08;13.60;;;6.05;;
78995;SDS011;68401;47.192;-1.552;2023-07-16T07:15:33;14.80;;;6.63;;
78995;SDS011;68401;47.192;-1.552;2023-07-16T07:17:59;13.07;;;6.88;;
78995;SDS011;68401;47.192;-1.552;2023-07-16T07:20:24;12.80;;;7.10;;
78995;SDS011;68401;47.192;-1.552;2023-07-16T07:22:50;10.15;;;6.15;;
78995;SDS011;68401;47.192;-1.552;2023-07-16T07:25:15;13.85;;;6.00;;
78995;SDS011;68401;47.192;-1.552;2023-07-16T07:27:40;16.40;;;5.78;;
78995;SDS011;68401;47.192;-1.552;2023-07-16T07:30:06;11.82;;;6.03;;
78995;SDS011;68401;47.192;-1.552;2023-07-16T07:32:32;12.60;;;5.32;;
78995;SDS011;68401;47.192;-1.552;2023-07-16T07:34:57;17.05;;;6.25;;
78995;SDS011;68401;47.192;-1.552;2023-07-16T07:37:23;15.10;;;5.22;;
78995;SDS011;68401;47.192;-1.552;2023-07-16T07:39:51;14.23;;;7.03;;
78995;SDS011;68401;47.192;-1.552;2023-07-16T07:42:17;11.40;;;5.50;;
78995;SDS011;68401;47.192;-1.552;2023-07-16T07:44:42;12.52;;;6.03;;
78995;SDS011;68401;47.192;-1.552;2023-07-16T07:47:08;16.42;;;5.97;;
78995;SDS011;68401;47.192;-1.552;2023-07-16T07:49:33;12.18;;;5.03;;
78995;SDS011;68401;47.192;-1.552;2023-07-16T07:51:59;14.88;;;5.90;;
78995;SDS011;68401;47.192;-1.552;2023-07-16T07:54:25;11.98;;;5.40;;
78995;SDS011;68401;47.192;-1.552;2023-07-16T07:56:50;10.70;;;4.90;;
78995;SDS011;68401;47.192;-1.552;2023-07-16T07:59:16;10.05;;;4.38;;
78995;SDS011;68401;47.192;-1.552;2023-07-16T08:01:41;10.38;;;5.13;;
78995;SDS011;68401;47.192;-1.552;2023-07-16T08:04:07;10.98;;;4.90;;
78995;SDS011;68401;47.192;-1.552;2023-07-16T08:06:32;9.43;;;4.72;;
78995;SDS011;68401;47.192;-1.552;2023-07-16T08:08:57;9.80;;;4.38;;
78995;SDS011;68401;47.192;-1.552;2023-07-16T08:11:23;10.02;;;4.35;;
78995;SDS011;68401;47.192;-1.552;2023-07-16T08:13:48;11.52;;;5.35;;
78995;SDS011;68401;47.192;-1.552;2023-07-16T08:16:14;10.32;;;4.82;;
78995;SDS011;68401;47.192;-1.552;2023-07-16T08:18:39;11.20;;;5.72;;
78995;SDS011;68401;47.192;-1.552;2023-07-16T08:21:05;10.80;;;4.20;;
78995;SDS011;68401;47.192;-1.552;2023-07-16T08:23:30;12.25;;;5.28;;
78995;SDS011;68401;47.192;-1.552;2023-07-16T08:25:56;14.48;;;4.72;;
78995;SDS011;68401;47.192;-1.552;2023-07-16T08:28:21;9.18;;;3.83;;
78995;SDS011;68401;47.192;-1.552;2023-07-16T08:30:47;10.50;;;4.25;;
78995;SDS011;68401;47.192;-1.552;2023-07-16T08:33:13;9.02;;;4.05;;
78995;SDS011;68401;47.192;-1.552;2023-07-16T08:35:39;8.00;;;3.10;;
78995;SDS011;68401;47.192;-1.552;2023-07-16T08:38:05;13.43;;;3.58;;
78995;SDS011;68401;47.192;-1.552;2023-07-16T08:40:34;9.07;;;4.88;;
78995;SDS011;68401;47.192;-1.552;2023-07-16T08:43:00;11.75;;;4.63;;
78995;SDS011;68401;47.192;-1.552;2023-07-16T08:45:27;7.32;;;3.38;;
78995;SDS011;68401;47.192;-1.552;2023-07-16T08:47:53;12.80;;;4.15;;
78995;SDS011;68401;47.192;-1.552;2023-07-16T08:50:19;13.77;;;4.03;;
78995;SDS011;68401;47.192;-1.552;2023-07-16T08:52:47;6.70;;;3.47;;
78995;SDS011;68401;47.192;-1.552;2023-07-16T08:55:12;8.35;;;3.15;;
78995;SDS011;68401;47.192;-1.552;2023-07-16T08:57:38;12.30;;;4.40;;
78995;SDS011;68401;47.192;-1.552;2023-07-16T09:00:04;8.55;;;4.10;;
78995;SDS011;68401;47.192;-1.552;2023-07-16T09:02:31;9.55;;;3.67;;
78995;SDS011;68401;47.192;-1.552;2023-07-16T09:04:56;9.52;;;3.60;;
78995;SDS011;68401;47.192;-1.552;2023-07-16T09:07:22;9.98;;;3.53;;
78995;SDS011;68401;47.192;-1.552;2023-07-16T09:09:57;7.88;;;3.72;;
78995;SDS011;68401;47.192;-1.552;2023-07-16T09:12:24;8.07;;;3.97;;
78995;SDS011;68401;47.192;-1.552;2023-07-16T09:14:49;6.03;;;3.35;;
78995;SDS011;68401;47.192;-1.552;2023-07-16T09:17:19;8.15;;;3.28;;
78995;SDS011;68401;47.192;-1.552;2023-07-16T09:19:51;6.78;;;3.00;;
78995;SDS011;68401;47.192;-1.552;2023-07-16T09:22:17;10.90;;;3.90;;
78995;SDS011;68401;47.192;-1.552;2023-07-16T09:24:47;6.05;;;2.53;;
78995;SDS011;68401;47.192;-1.552;2023-07-16T09:27:12;9.40;;;3.00;;
78995;SDS011;68401;47.192;-1.552;2023-07-16T09:29:38;5.05;;;2.67;;
78995;SDS011;68401;47.192;-1.552;2023-07-16T09:32:04;6.72;;;2.88;;
78995;SDS011;68401;47.192;-1.552;2023-07-16T09:34:30;7.18;;;3.75;;
78995;SDS011;68401;47.192;-1.552;2023-07-16T09:36:59;9.70;;;4.00;;
78995;SDS011;68401;47.192;-1.552;2023-07-16T09:39:26;8.70;;;3.60;;
78995;SDS011;68401;47.192;-1.552;2023-07-16T09:41:52;7.32;;;3.15;;
78995;SDS011;68401;47.192;-1.552;2023-07-16T09:44:18;13.05;;;3.40;;
78995;SDS011;68401;47.192;-1.552;2023-07-16T09:46:44;8.27;;;3.60;;
78995;SDS011;68401;47.192;-1.552;2023-07-16T09:49:10;7.70;;;3.70;;
78995;SDS011;68401;47.192;-1.552;2023-07-16T09:51:36;7.68;;;3.47;;
78995;SDS011;68401;47.192;-1.552;2023-07-16T09:54:02;6.97;;;3.40;;
78995;SDS011;68401;47.192;-1.552;2023-07-16T09:56:39;9.40;;;3.55;;
78995;SDS011;68401;47.192;-1.552;2023-07-16T09:59:08;7.43;;;2.65;;
78995;SDS011;68401;47.192;-1.552;2023-07-16T10:01:36;5.80;;;2.88;;
78995;SDS011;68401;47.192;-1.552;2023-07-16T10:04:17;6.53;;;3.38;;
78995;SDS011;68401;47.192;-1.552;2023-07-16T10:06:53;6.65;;;2.95;;
78995;SDS011;68401;47.192;-1.552;2023-07-16T10:12:11;6.47;;;3.50;;
78995;SDS011;68401;47.192;-1.552;2023-07-16T10:17:25;4.28;;;2.40;;
78995;SDS011;68401;47.192;-1.552;2023-07-16T10:19:55;9.32;;;2.85;;
78995;SDS011;68401;47.192;-1.552;2023-07-16T10:24:56;5.45;;;2.50;;
78995;SDS011;68401;47.192;-1.552;2023-07-16T10:27:33;7.43;;;2.33;;
78995;SDS011;68401;47.192;-1.552;2023-07-16T10:30:00;6.60;;;2.53;;
78995;SDS011;68401;47.192;-1.552;2023-07-16T10:32:27;6.25;;;2.97;;
78995;SDS011;68401;47.192;-1.552;2023-07-16T10:34:54;5.82;;;2.70;;
78995;SDS011;68401;47.192;-1.552;2023-07-16T10:37:20;5.07;;;2.40;;
78995;SDS011;68401;47.192;-1.552;2023-07-16T10:39:49;6.90;;;2.63;;
78995;SDS011;68401;47.192;-1.552;2023-07-16T10:42:19;16.00;;;5.55;;
78995;SDS011;68401;47.192;-1.552;2023-07-16T10:44:48;8.10;;;4.45;;
78995;SDS011;68401;47.192;-1.552;2023-07-16T10:47:22;7.47;;;4.40;;
78995;SDS011;68401;47.192;-1.552;2023-07-16T10:49:55;8.05;;;3.58;;
78995;SDS011;68401;47.192;-1.552;2023-07-16T10:52:21;6.57;;;2.78;;
78995;SDS011;68401;47.192;-1.552;2023-07-16T10:54:47;8.30;;;3.30;;
78995;SDS011;68401;47.192;-1.552;2023-07-16T10:57:19;6.70;;;2.67;;
78995;SDS011;68401;47.192;-1.552;2023-07-16T10:59:45;5.72;;;2.75;;
78995;SDS011;68401;47.192;-1.552;2023-07-16T11:02:11;6.35;;;2.63;;
78995;SDS011;68401;47.192;-1.552;2023-07-16T11:04:37;6.50;;;2.70;;
78995;SDS011;68401;47.192;-1.552;2023-07-16T11:07:04;6.15;;;3.17;;
78995;SDS011;68401;47.192;-1.552;2023-07-16T11:09:33;6.95;;;2.40;;
78995;SDS011;68401;47.192;-1.552;2023-07-16T11:12:08;6.60;;;2.53;;
78995;SDS011;68401;47.192;-1.552;2023-07-16T11:14:35;6.15;;;2.20;;
78995;SDS011;68401;47.192;-1.552;2023-07-16T11:17:04;5.18;;;2.22;;
78995;SDS011;68401;47.192;-1.552;2023-07-16T11:19:32;5.45;;;2.00;;
78995;SDS011;68401;47.192;-1.552;2023-07-16T11:21:57;6.20;;;2.58;;
78995;SDS011;68401;47.192;-1.552;2023-07-16T11:24:24;7.10;;;2.88;;
78995;SDS011;68401;47.192;-1.552;2023-07-16T11:26:52;6.40;;;2.65;;
78995;SDS011;68401;47.192;-1.552;2023-07-16T11:29:18;6.22;;;1.95;;
78995;SDS011;68401;47.192;-1.552;2023-07-16T11:31:44;5.97;;;2.67;;
78995;SDS011;68401;47.192;-1.552;2023-07-16T11:34:14;6.00;;;2.88;;
78995;SDS011;68401;47.192;-1.552;2023-07-16T11:36:39;5.80;;;2.30;;
78995;SDS011;68401;47.192;-1.552;2023-07-16T11:39:05;8.43;;;2.72;;
78995;SDS011;68401;47.192;-1.552;2023-07-16T11:41:30;4.85;;;2.10;;
78995;SDS011;68401;47.192;-1.552;2023-07-16T11:43:59;6.95;;;2.20;;
78995;SDS011;68401;47.192;-1.552;2023-07-16T11:46:30;6.03;;;2.10;;
78995;SDS011;68401;47.192;-1.552;2023-07-16T11:48:57;6.45;;;1.95;;
78995;SDS011;68401;47.192;-1.552;2023-07-16T11:51:22;3.75;;;2.17;;
78995;SDS011;68401;47.192;-1.552;2023-07-16T11:53:47;3.78;;;1.75;;
78995;SDS011;68401;47.192;-1.552;2023-07-16T11:56:13;5.43;;;2.45;;
78995;SDS011;68401;47.192;-1.552;2023-07-16T11:58:38;4.55;;;1.98;;
78995;SDS011;68401;47.192;-1.552;2023-07-16T12:01:03;7.38;;;2.17;;
78995;SDS011;68401;47.192;-1.552;2023-07-16T12:03:29;5.55;;;2.10;;
78995;SDS011;68401;47.192;-1.552;2023-07-16T12:05:54;7.35;;;2.50;;
78995;SDS011;68401;47.192;-1.552;2023-07-16T12:08:20;8.60;;;2.63;;
78995;SDS011;68401;47.192;-1.552;2023-07-16T12:10:45;4.57;;;2.47;;
78995;SDS011;68401;47.192;-1.552;2023-07-16T12:13:10;4.63;;;2.35;;
78995;SDS011;68401;47.192;-1.552;2023-07-16T12:15:36;4.90;;;2.03;;
78995;SDS011;68401;47.192;-1.552;2023-07-16T12:18:01;5.38;;;2.72;;
78995;SDS011;68401;47.192;-1.552;2023-07-16T12:20:28;5.25;;;2.20;;
78995;SDS011;68401;47.192;-1.552;2023-07-16T12:22:53;10.15;;;4.80;;
78995;SDS011;68401;47.192;-1.552;2023-07-16T12:25:18;9.02;;;4.85;;
78995;SDS011;68401;47.192;-1.552;2023-07-16T12:27:45;7.90;;;3.28;;
78995;SDS011;68401;47.192;-1.552;2023-07-16T12:30:10;5.00;;;2.08;;
78995;SDS011;68401;47.192;-1.552;2023-07-16T12:32:36;6.90;;;2.10;;
78995;SDS011;68401;47.192;-1.552;2023-07-16T12:35:01;4.40;;;2.22;;
78995;SDS011;68401;47.192;-1.552;2023-07-16T12:37:28;4.78;;;1.85;;
78995;SDS011;68401;47.192;-1.552;2023-07-16T12:39:53;4.65;;;2.20;;
78995;SDS011;68401;47.192;-1.552;2023-07-16T12:42:19;3.83;;;1.27;;
78995;SDS011;68401;47.192;-1.552;2023-07-16T12:44:44;5.00;;;2.03;;
78995;SDS011;68401;47.192;-1.552;2023-07-16T12:47:11;6.03;;;2.50;;
78995;SDS011;68401;47.192;-1.552;2023-07-16T12:49:36;3.95;;;2.05;;
78995;SDS011;68401;47.192;-1.552;2023-07-16T12:52:02;5.07;;;2.20;;
78995;SDS011;68401;47.192;-1.552;2023-07-16T12:54:27;7.40;;;2.17;;
78995;SDS011;68401;47.192;-1.552;2023-07-16T12:56:54;4.88;;;2.53;;
78995;SDS011;68401;47.192;-1.552;2023-07-16T12:59:20;7.03;;;2.80;;
78995;SDS011;68401;47.192;-1.552;2023-07-16T13:01:45;6.43;;;2.42;;
78995;SDS011;68401;47.192;-1.552;2023-07-16T13:04:11;7.68;;;2.33;;
78995;SDS011;68401;47.192;-1.552;2023-07-16T13:06:36;6.82;;;2.80;;
78995;SDS011;68401;47.192;-1.552;2023-07-16T13:09:02;5.88;;;2.40;;
78995;SDS011;68401;47.192;-1.552;2023-07-16T13:11:30;5.78;;;2.13;;
78995;SDS011;68401;47.192;-1.552;2023-07-16T13:13:55;5.70;;;2.17;;
78995;SDS011;68401;47.192;-1.552;2023-07-16T13:16:21;7.30;;;2.17;;
78995;SDS011;68401;47.192;-1.552;2023-07-16T13:18:46;4.30;;;2.15;;
78995;SDS011;68401;47.192;-1.552;2023-07-16T13:21:12;6.25;;;2.28;;
78995;SDS011;68401;47.192;-1.552;2023-07-16T13:23:37;7.97;;;2.05;;
78995;SDS011;68401;47.192;-1.552;2023-07-16T13:26:03;5.47;;;1.75;;
78995;SDS011;68401;47.192;-1.552;2023-07-16T13:28:28;4.75;;;1.90;;
78995;SDS011;68401;47.192;-1.552;2023-07-16T13:30:53;5.32;;;1.90;;
78995;SDS011;68401;47.192;-1.552;2023-07-16T13:33:19;5.35;;;1.77;;
78995;SDS011;68401;47.192;-1.552;2023-07-16T13:35:44;6.05;;;2.20;;
78995;SDS011;68401;47.192;-1.552;2023-07-16T13:38:10;7.38;;;2.50;;
78995;SDS011;68401;47.192;-1.552;2023-07-16T13:40:35;7.18;;;2.58;;
78995;SDS011;68401;47.192;-1.552;2023-07-16T13:43:01;6.13;;;2.13;;
78995;SDS011;68401;47.192;-1.552;2023-07-16T13:45:26;6.85;;;1.98;;
78995;SDS011;68401;47.192;-1.552;2023-07-16T13:47:52;4.78;;;1.58;;
78995;SDS011;68401;47.192;-1.552;2023-07-16T13:50:17;3.90;;;1.60;;
78995;SDS011;68401;47.192;-1.552;2023-07-16T13:52:44;7.47;;;1.67;;
78995;SDS011;68401;47.192;-1.552;2023-07-16T13:55:09;5.05;;;2.00;;
78995;SDS011;68401;47.192;-1.552;2023-07-16T13:57:35;3.92;;;1.70;;
78995;SDS011;68401;47.192;-1.552;2023-07-16T14:00:01;5.13;;;1.70;;
78995;SDS011;68401;47.192;-1.552;2023-07-16T14:02:29;5.47;;;2.63;;
78995;SDS011;68401;47.192;-1.552;2023-07-16T14:04:54;3.15;;;1.42;;
78995;SDS011;68401;47.192;-1.552;2023-07-16T14:07:19;6.30;;;1.40;;
78995;SDS011;68401;47.192;-1.552;2023-07-16T14:09:45;4.60;;;1.83;;
78995;SDS011;68401;47.192;-1.552;2023-07-16T14:12:10;3.05;;;1.52;;
78995;SDS011;68401;47.192;-1.552;2023-07-16T14:14:36;4.30;;;1.95;;
78995;SDS011;68401;47.192;-1.552;2023-07-16T14:17:01;4.22;;;1.60;;
78995;SDS011;68401;47.192;-1.552;2023-07-16T14:19:27;4.28;;;1.67;;
78995;SDS011;68401;47.192;-1.552;2023-07-16T14:21:54;4.43;;;1.58;;
78995;SDS011;68401;47.192;-1.552;2023-07-16T14:24:20;4.43;;;1.73;;
78995;SDS011;68401;47.192;-1.552;2023-07-16T14:26:45;5.47;;;1.98;;
78995;SDS011;68401;47.192;-1.552;2023-07-16T14:29:11;4.45;;;1.33;;
78995;SDS011;68401;47.192;-1.552;2023-07-16T14:31:37;3.30;;;1.20;;
78995;SDS011;68401;47.192;-1.552;2023-07-16T14:34:02;4.97;;;1.98;;
78995;SDS011;68401;47.192;-1.552;2023-07-16T14:36:27;2.47;;;1.52;;
78995;SDS011;68401;47.192;-1.552;2023-07-16T14:38:53;3.85;;;1.40;;
78995;SDS011;68401;47.192;-1.552;2023-07-16T14:41:19;5.95;;;2.10;;